sensor_id;sensor_type;location;lat;lon;timestamp;temperature;humidity
10149;DHT22;5115;50.920;6.376;2023-02-08T00:00:39;2.20;99.90
10149;DHT22;5115;50.920;6.376;2023-02-08T00:03:05;2.10;99.90
10149;DHT22;5115;50.920;6.376;2023-02-08T00:05:31;2.10;99.90
10149;DHT22;5115;50.920;6.376;2023-02-08T00:07:56;2.10;99.90
10149;DHT22;5115;50.920;6.376;2023-02-08T00:10:22;2.10;99.90
10149;DHT22;5115;50.920;6.376;2023-02-08T00:12:47;2.10;99.90
10149;DHT22;5115;50.920;6.376;2023-02-08T00:15:13;2.20;99.90
10149;DHT22;5115;50.920;6.376;2023-02-08T00:17:38;2.20;99.90
10149;DHT22;5115;50.920;6.376;2023-02-08T00:20:04;3.40;99.90
10149;DHT22;5115;50.920;6.376;2023-02-08T00:22:31;2.20;99.90
10149;DHT22;5115;50.920;6.376;2023-02-08T00:24:56;2.10;99.90
10149;DHT22;5115;50.920;6.376;2023-02-08T00:27:22;2.00;99.90
10149;DHT22;5115;50.920;6.376;2023-02-08T00:29:47;2.00;99.90
10149;DHT22;5115;50.920;6.376;2023-02-08T00:32:13;2.00;99.90
10149;DHT22;5115;50.920;6.376;2023-02-08T00:34:38;2.00;99.90
10149;DHT22;5115;50.920;6.376;2023-02-08T00:37:05;2.00;99.90
10149;DHT22;5115;50.920;6.376;2023-02-08T00:39:30;2.00;99.90
10149;DHT22;5115;50.920;6.376;2023-02-08T00:41:56;2.00;99.90
10149;DHT22;5115;50.920;6.376;2023-02-08T00:44:21;2.00;99.90
10149;DHT22;5115;50.920;6.376;2023-02-08T00:46:47;1.90;99.90
10149;DHT22;5115;50.920;6.376;2023-02-08T00:49:12;1.90;99.90
10149;DHT22;5115;50.920;6.376;2023-02-08T00:51:38;1.90;99.90
10149;DHT22;5115;50.920;6.376;2023-02-08T00:54:03;1.80;99.90
10149;DHT22;5115;50.920;6.376;2023-02-08T00:56:29;1.90;99.90
10149;DHT22;5115;50.920;6.376;2023-02-08T00:58:58;1.90;99.90
10149;DHT22;5115;50.920;6.376;2023-02-08T01:01:24;1.80;99.90
10149;DHT22;5115;50.920;6.376;2023-02-08T01:03:49;1.80;99.90
10149;DHT22;5115;50.920;6.376;2023-02-08T01:06:16;1.80;99.90
10149;DHT22;5115;50.920;6.376;2023-02-08T01:08:42;1.80;99.90
10149;DHT22;5115;50.920;6.376;2023-02-08T01:11:09;1.80;99.90
10149;DHT22;5115;50.920;6.376;2023-02-08T01:13:36;1.70;99.90
10149;DHT22;5115;50.920;6.376;2023-02-08T01:16:31;1.80;99.90
10149;DHT22;5115;50.920;6.376;2023-02-08T01:18:58;1.60;99.90
10149;DHT22;5115;50.920;6.376;2023-02-08T01:21:26;1.40;99.90
10149;DHT22;5115;50.920;6.376;2023-02-08T01:23:52;1.40;99.90
10149;DHT22;5115;50.920;6.376;2023-02-08T01:26:19;1.30;99.90
10149;DHT22;5115;50.920;6.376;2023-02-08T01:28:45;1.30;99.90
10149;DHT22;5115;50.920;6.376;2023-02-08T01:31:13;1.30;99.90
10149;DHT22;5115;50.920;6.376;2023-02-08T01:33:40;1.10;99.90
10149;DHT22;5115;50.920;6.376;2023-02-08T01:36:06;1.60;99.90
10149;DHT22;5115;50.920;6.376;2023-02-08T01:38:32;1.10;99.90
10149;DHT22;5115;50.920;6.376;2023-02-08T01:40:58;1.10;99.90
10149;DHT22;5115;50.920;6.376;2023-02-08T01:43:27;0.90;99.90
10149;DHT22;5115;50.920;6.376;2023-02-08T01:45:53;0.80;99.90
10149;DHT22;5115;50.920;6.376;2023-02-08T01:48:23;0.80;99.90
10149;DHT22;5115;50.920;6.376;2023-02-08T01:50:55;0.80;99.90
10149;DHT22;5115;50.920;6.376;2023-02-08T01:53:23;1.00;99.90
10149;DHT22;5115;50.920;6.376;2023-02-08T01:55:53;0.90;99.90
10149;DHT22;5115;50.920;6.376;2023-02-08T01:58:20;1.00;99.90
10149;DHT22;5115;50.920;6.376;2023-02-08T02:00:47;1.00;99.90
10149;DHT22;5115;50.920;6.376;2023-02-08T02:03:17;1.00;99.90
10149;DHT22;5115;50.920;6.376;2023-02-08T02:05:46;0.90;99.90
10149;DHT22;5115;50.920;6.376;2023-02-08T02:08:13;1.00;99.90
10149;DHT22;5115;50.920;6.376;2023-02-08T02:10:39;1.00;99.90
10149;DHT22;5115;50.920;6.376;2023-02-08T02:13:17;1.10;99.90
10149;DHT22;5115;50.920;6.376;2023-02-08T02:15:44;1.00;99.90
10149;DHT22;5115;50.920;6.376;2023-02-08T02:18:11;1.00;99.90
10149;DHT22;5115;50.920;6.376;2023-02-08T02:26:52;0.90;99.90
10149;DHT22;5115;50.920;6.376;2023-02-08T02:35:17;0.90;99.90
10149;DHT22;5115;50.920;6.376;2023-02-08T02:38:09;0.80;99.90
10149;DHT22;5115;50.920;6.376;2023-02-08T02:40:52;0.80;99.90
10149;DHT22;5115;50.920;6.376;2023-02-08T02:43:36;0.90;99.90
10149;DHT22;5115;50.920;6.376;2023-02-08T02:46:34;0.80;99.90
10149;DHT22;5115;50.920;6.376;2023-02-08T02:52:02;0.90;99.90
10149;DHT22;5115;50.920;6.376;2023-02-08T02:54:36;1.00;99.90
10149;DHT22;5115;50.920;6.376;2023-02-08T02:57:06;0.90;99.90
10149;DHT22;5115;50.920;6.376;2023-02-08T02:59:35;0.90;99.90
10149;DHT22;5115;50.920;6.376;2023-02-08T03:02:03;0.90;99.90
10149;DHT22;5115;50.920;6.376;2023-02-08T03:20:40;0.80;99.90
10149;DHT22;5115;50.920;6.376;2023-02-08T03:31:18;0.90;99.90
10149;DHT22;5115;50.920;6.376;2023-02-08T03:33:52;0.80;99.90
10149;DHT22;5115;50.920;6.376;2023-02-08T03:36:25;1.00;99.90
10149;DHT22;5115;50.920;6.376;2023-02-08T03:38:55;0.90;99.90
10149;DHT22;5115;50.920;6.376;2023-02-08T03:41:25;0.90;99.90
10149;DHT22;5115;50.920;6.376;2023-02-08T03:44:17;0.90;99.90
10149;DHT22;5115;50.920;6.376;2023-02-08T03:46:52;0.90;99.90
10149;DHT22;5115;50.920;6.376;2023-02-08T03:49:23;0.80;99.90
10149;DHT22;5115;50.920;6.376;2023-02-08T03:51:53;0.80;99.90
10149;DHT22;5115;50.920;6.376;2023-02-08T03:54:21;0.80;99.90
10149;DHT22;5115;50.920;6.376;2023-02-08T03:59:24;0.90;99.90
10149;DHT22;5115;50.920;6.376;2023-02-08T04:01:59;0.80;99.90
10149;DHT22;5115;50.920;6.376;2023-02-08T04:04:31;0.80;99.90
10149;DHT22;5115;50.920;6.376;2023-02-08T04:06:58;0.90;99.90
10149;DHT22;5115;50.920;6.376;2023-02-08T04:09:24;0.90;99.90
10149;DHT22;5115;50.920;6.376;2023-02-08T04:11:49;0.90;99.90
10149;DHT22;5115;50.920;6.376;2023-02-08T04:14:15;1.00;99.90
10149;DHT22;5115;50.920;6.376;2023-02-08T04:16:41;1.00;99.90
10149;DHT22;5115;50.920;6.376;2023-02-08T04:19:06;1.00;99.90
10149;DHT22;5115;50.920;6.376;2023-02-08T04:21:32;1.00;99.90
10149;DHT22;5115;50.920;6.376;2023-02-08T04:23:58;0.90;99.90
10149;DHT22;5115;50.920;6.376;2023-02-08T04:26:23;0.90;99.90
10149;DHT22;5115;50.920;6.376;2023-02-08T04:28:49;1.00;99.90
10149;DHT22;5115;50.920;6.376;2023-02-08T04:31:14;1.00;99.90
10149;DHT22;5115;50.920;6.376;2023-02-08T04:33:40;1.10;99.90
10149;DHT22;5115;50.920;6.376;2023-02-08T04:36:06;1.10;99.90
10149;DHT22;5115;50.920;6.376;2023-02-08T04:38:31;1.10;99.90
10149;DHT22;5115;50.920;6.376;2023-02-08T04:40:57;1.10;99.90
10149;DHT22;5115;50.920;6.376;2023-02-08T04:43:23;1.10;99.90
10149;DHT22;5115;50.920;6.376;2023-02-08T04:45:49;1.00;99.90
10149;DHT22;5115;50.920;6.376;2023-02-08T04:48:15;1.00;99.90
10149;DHT22;5115;50.920;6.376;2023-02-08T04:50:41;0.90;99.90
10149;DHT22;5115;50.920;6.376;2023-02-08T04:53:07;0.80;99.90
10149;DHT22;5115;50.920;6.376;2023-02-08T04:55:32;0.70;99.90
10149;DHT22;5115;50.920;6.376;2023-02-08T04:57:58;0.70;99.90
10149;DHT22;5115;50.920;6.376;2023-02-08T05:00:24;0.60;99.90
10149;DHT22;5115;50.920;6.376;2023-02-08T05:02:56;0.70;99.90
10149;DHT22;5115;50.920;6.376;2023-02-08T05:05:23;0.70;99.90
10149;DHT22;5115;50.920;6.376;2023-02-08T05:07:50;0.70;99.90
10149;DHT22;5115;50.920;6.376;2023-02-08T05:10:15;0.80;99.90
10149;DHT22;5115;50.920;6.376;2023-02-08T05:12:41;0.80;99.90
10149;DHT22;5115;50.920;6.376;2023-02-08T05:15:07;0.90;99.90
10149;DHT22;5115;50.920;6.376;2023-02-08T05:17:33;0.90;99.90
10149;DHT22;5115;50.920;6.376;2023-02-08T05:19:58;1.00;99.90
10149;DHT22;5115;50.920;6.376;2023-02-08T05:22:24;1.00;99.90
10149;DHT22;5115;50.920;6.376;2023-02-08T05:24:49;1.00;99.90
10149;DHT22;5115;50.920;6.376;2023-02-08T05:27:15;1.00;99.90
10149;DHT22;5115;50.920;6.376;2023-02-08T05:29:40;1.00;99.90
10149;DHT22;5115;50.920;6.376;2023-02-08T05:32:07;1.00;99.90
10149;DHT22;5115;50.920;6.376;2023-02-08T05:34:33;1.00;99.90
10149;DHT22;5115;50.920;6.376;2023-02-08T05:36:58;1.00;99.90
10149;DHT22;5115;50.920;6.376;2023-02-08T05:39:24;0.90;99.90
10149;DHT22;5115;50.920;6.376;2023-02-08T05:41:49;0.90;99.90
10149;DHT22;5115;50.920;6.376;2023-02-08T05:44:15;0.90;99.90
10149;DHT22;5115;50.920;6.376;2023-02-08T05:46:40;0.90;99.90
10149;DHT22;5115;50.920;6.376;2023-02-08T05:49:06;0.90;99.90
10149;DHT22;5115;50.920;6.376;2023-02-08T05:51:32;0.80;99.90
10149;DHT22;5115;50.920;6.376;2023-02-08T05:53:57;0.80;99.90
10149;DHT22;5115;50.920;6.376;2023-02-08T05:56:23;0.90;99.90
10149;DHT22;5115;50.920;6.376;2023-02-08T05:58:48;0.90;99.90
10149;DHT22;5115;50.920;6.376;2023-02-08T06:01:14;0.80;99.90
10149;DHT22;5115;50.920;6.376;2023-02-08T06:03:40;0.80;99.90
10149;DHT22;5115;50.920;6.376;2023-02-08T06:06:06;0.80;99.90
10149;DHT22;5115;50.920;6.376;2023-02-08T06:08:32;0.90;99.90
10149;DHT22;5115;50.920;6.376;2023-02-08T06:10:58;0.90;99.90
10149;DHT22;5115;50.920;6.376;2023-02-08T06:13:23;0.90;99.90
10149;DHT22;5115;50.920;6.376;2023-02-08T06:15:49;0.70;99.90
10149;DHT22;5115;50.920;6.376;2023-02-08T06:18:15;0.60;99.90
10149;DHT22;5115;50.920;6.376;2023-02-08T06:20:41;0.60;99.90
10149;DHT22;5115;50.920;6.376;2023-02-08T06:23:06;0.60;99.90
10149;DHT22;5115;50.920;6.376;2023-02-08T06:25:32;0.50;99.90
10149;DHT22;5115;50.920;6.376;2023-02-08T06:27:58;0.40;99.90
10149;DHT22;5115;50.920;6.376;2023-02-08T06:30:23;0.30;99.90
10149;DHT22;5115;50.920;6.376;2023-02-08T06:32:49;0.40;99.90
10149;DHT22;5115;50.920;6.376;2023-02-08T06:35:14;0.50;99.90
10149;DHT22;5115;50.920;6.376;2023-02-08T06:37:40;0.50;99.90
10149;DHT22;5115;50.920;6.376;2023-02-08T06:40:07;0.50;99.90
10149;DHT22;5115;50.920;6.376;2023-02-08T06:42:32;0.60;99.90
10149;DHT22;5115;50.920;6.376;2023-02-08T06:44:58;0.60;99.90
10149;DHT22;5115;50.920;6.376;2023-02-08T06:47:25;0.60;99.90
10149;DHT22;5115;50.920;6.376;2023-02-08T06:49:50;0.70;99.90
10149;DHT22;5115;50.920;6.376;2023-02-08T06:52:17;0.70;99.90
10149;DHT22;5115;50.920;6.376;2023-02-08T06:54:42;0.80;99.90
10149;DHT22;5115;50.920;6.376;2023-02-08T06:57:08;0.80;99.90
10149;DHT22;5115;50.920;6.376;2023-02-08T06:59:37;0.70;99.90
10149;DHT22;5115;50.920;6.376;2023-02-08T07:02:03;0.70;99.90
10149;DHT22;5115;50.920;6.376;2023-02-08T07:04:29;0.70;99.90
10149;DHT22;5115;50.920;6.376;2023-02-08T07:06:55;0.70;99.90
10149;DHT22;5115;50.920;6.376;2023-02-08T07:09:20;0.70;99.90
10149;DHT22;5115;50.920;6.376;2023-02-08T07:11:46;0.70;99.90
10149;DHT22;5115;50.920;6.376;2023-02-08T07:14:13;0.70;99.90
10149;DHT22;5115;50.920;6.376;2023-02-08T07:16:38;0.70;99.90
10149;DHT22;5115;50.920;6.376;2023-02-08T07:19:04;0.70;99.90
10149;DHT22;5115;50.920;6.376;2023-02-08T07:21:29;0.80;99.90
10149;DHT22;5115;50.920;6.376;2023-02-08T07:23:55;0.70;99.90
10149;DHT22;5115;50.920;6.376;2023-02-08T07:26:20;0.80;99.90
10149;DHT22;5115;50.920;6.376;2023-02-08T07:28:46;0.80;99.90
10149;DHT22;5115;50.920;6.376;2023-02-08T07:31:14;0.90;99.90
10149;DHT22;5115;50.920;6.376;2023-02-08T07:33:40;1.00;99.90
10149;DHT22;5115;50.920;6.376;2023-02-08T07:36:07;1.00;99.90
10149;DHT22;5115;50.920;6.376;2023-02-08T07:38:33;2.20;99.90
10149;DHT22;5115;50.920;6.376;2023-02-08T07:41:10;1.40;99.90
10149;DHT22;5115;50.920;6.376;2023-02-08T07:43:37;2.40;99.90
10149;DHT22;5115;50.920;6.376;2023-02-08T07:46:09;3.70;99.90
10149;DHT22;5115;50.920;6.376;2023-02-08T07:48:35;4.30;99.90
10149;DHT22;5115;50.920;6.376;2023-02-08T07:51:00;4.80;99.90
10149;DHT22;5115;50.920;6.376;2023-02-08T07:53:27;5.10;99.90
10149;DHT22;5115;50.920;6.376;2023-02-08T07:55:52;5.60;99.90
10149;DHT22;5115;50.920;6.376;2023-02-08T07:58:18;6.40;99.90
10149;DHT22;5115;50.920;6.376;2023-02-08T08:00:43;7.30;99.90
10149;DHT22;5115;50.920;6.376;2023-02-08T08:03:09;7.60;99.90
10149;DHT22;5115;50.920;6.376;2023-02-08T08:05:35;7.30;99.90
10149;DHT22;5115;50.920;6.376;2023-02-08T08:08:00;7.70;99.90
10149;DHT22;5115;50.920;6.376;2023-02-08T08:10:26;8.40;99.90
10149;DHT22;5115;50.920;6.376;2023-02-08T08:12:51;7.80;99.30
10149;DHT22;5115;50.920;6.376;2023-02-08T08:15:17;7.40;99.90
10149;DHT22;5115;50.920;6.376;2023-02-08T08:17:42;7.60;99.90
10149;DHT22;5115;50.920;6.376;2023-02-08T08:20:09;8.00;99.70
10149;DHT22;5115;50.920;6.376;2023-02-08T08:22:35;9.20;99.40
10149;DHT22;5115;50.920;6.376;2023-02-08T08:25:00;9.30;97.90
10149;DHT22;5115;50.920;6.376;2023-02-08T08:27:26;9.60;98.20
10149;DHT22;5115;50.920;6.376;2023-02-08T08:29:51;10.00;97.50
10149;DHT22;5115;50.920;6.376;2023-02-08T08:32:20;11.00;96.80
10149;DHT22;5115;50.920;6.376;2023-02-08T08:34:46;10.50;96.40
10149;DHT22;5115;50.920;6.376;2023-02-08T08:37:11;10.40;96.50
10149;DHT22;5115;50.920;6.376;2023-02-08T08:39:37;10.40;96.60
10149;DHT22;5115;50.920;6.376;2023-02-08T08:42:02;11.20;96.10
10149;DHT22;5115;50.920;6.376;2023-02-08T08:44:29;11.70;95.70
10149;DHT22;5115;50.920;6.376;2023-02-08T08:46:59;12.80;95.10
10149;DHT22;5115;50.920;6.376;2023-02-08T08:49:26;13.50;94.20
10149;DHT22;5115;50.920;6.376;2023-02-08T08:51:52;13.60;93.40
10149;DHT22;5115;50.920;6.376;2023-02-08T08:54:18;13.20;93.40
10149;DHT22;5115;50.920;6.376;2023-02-08T08:56:43;13.40;92.90
10149;DHT22;5115;50.920;6.376;2023-02-08T08:59:09;12.40;93.30
10149;DHT22;5115;50.920;6.376;2023-02-08T09:01:34;13.30;93.60
10149;DHT22;5115;50.920;6.376;2023-02-08T09:04:00;13.40;92.90
10149;DHT22;5115;50.920;6.376;2023-02-08T09:06:26;12.70;91.50
10149;DHT22;5115;50.920;6.376;2023-02-08T09:08:51;13.00;92.20
10149;DHT22;5115;50.920;6.376;2023-02-08T09:11:17;13.40;93.40
10149;DHT22;5115;50.920;6.376;2023-02-08T09:13:43;14.20;91.90
10149;DHT22;5115;50.920;6.376;2023-02-08T09:16:14;15.10;92.40
10149;DHT22;5115;50.920;6.376;2023-02-08T09:18:40;14.30;90.90
10149;DHT22;5115;50.920;6.376;2023-02-08T09:21:08;13.30;91.40
10149;DHT22;5115;50.920;6.376;2023-02-08T09:23:33;14.40;91.90
10149;DHT22;5115;50.920;6.376;2023-02-08T09:26:02;14.90;90.50
10149;DHT22;5115;50.920;6.376;2023-02-08T09:28:28;15.10;91.20
10149;DHT22;5115;50.920;6.376;2023-02-08T09:30:53;15.90;90.30
10149;DHT22;5115;50.920;6.376;2023-02-08T09:33:19;14.90;89.50
10149;DHT22;5115;50.920;6.376;2023-02-08T09:35:44;14.50;88.30
10149;DHT22;5115;50.920;6.376;2023-02-08T09:38:10;14.10;90.00
10149;DHT22;5115;50.920;6.376;2023-02-08T09:43:14;13.90;90.90
10149;DHT22;5115;50.920;6.376;2023-02-08T09:45:48;13.30;90.00
10149;DHT22;5115;50.920;6.376;2023-02-08T09:48:31;14.20;90.50
10149;DHT22;5115;50.920;6.376;2023-02-08T09:51:18;14.20;89.00
10149;DHT22;5115;50.920;6.376;2023-02-08T09:53:50;13.80;88.90
10149;DHT22;5115;50.920;6.376;2023-02-08T09:56:23;13.80;90.20
10149;DHT22;5115;50.920;6.376;2023-02-08T09:58:51;14.10;90.30
10149;DHT22;5115;50.920;6.376;2023-02-08T10:01:21;14.80;89.00
10149;DHT22;5115;50.920;6.376;2023-02-08T10:03:51;14.20;88.60
10149;DHT22;5115;50.920;6.376;2023-02-08T10:06:18;14.60;89.70
10149;DHT22;5115;50.920;6.376;2023-02-08T10:08:46;15.10;90.20
10149;DHT22;5115;50.920;6.376;2023-02-08T10:17:03;15.70;90.40
10149;DHT22;5115;50.920;6.376;2023-02-08T10:22:37;15.90;87.90
10149;DHT22;5115;50.920;6.376;2023-02-08T10:31:00;14.90;86.60
10149;DHT22;5115;50.920;6.376;2023-02-08T10:33:54;14.90;87.90
10149;DHT22;5115;50.920;6.376;2023-02-08T10:36:26;15.10;88.10
10149;DHT22;5115;50.920;6.376;2023-02-08T10:38:54;14.70;87.60
10149;DHT22;5115;50.920;6.376;2023-02-08T10:41:32;14.80;86.40
10149;DHT22;5115;50.920;6.376;2023-02-08T10:44:04;14.40;87.60
10149;DHT22;5115;50.920;6.376;2023-02-08T10:46:34;12.70;86.50
10149;DHT22;5115;50.920;6.376;2023-02-08T10:51:44;13.30;91.10
10149;DHT22;5115;50.920;6.376;2023-02-08T10:54:15;13.20;90.30
10149;DHT22;5115;50.920;6.376;2023-02-08T10:57:17;12.40;90.90
10149;DHT22;5115;50.920;6.376;2023-02-08T11:02:27;11.40;92.50
10149;DHT22;5115;50.920;6.376;2023-02-08T11:05:07;11.40;90.90
10149;DHT22;5115;50.920;6.376;2023-02-08T11:07:33;10.50;91.30
10149;DHT22;5115;50.920;6.376;2023-02-08T11:10:22;10.80;92.60
10149;DHT22;5115;50.920;6.376;2023-02-08T11:13:14;10.30;92.00
10149;DHT22;5115;50.920;6.376;2023-02-08T11:15:52;10.20;92.10
10149;DHT22;5115;50.920;6.376;2023-02-08T11:18:26;10.70;92.70
10149;DHT22;5115;50.920;6.376;2023-02-08T11:20:56;10.70;92.40
10149;DHT22;5115;50.920;6.376;2023-02-08T11:23:28;10.90;91.90
10149;DHT22;5115;50.920;6.376;2023-02-08T11:26:15;10.60;91.30
10149;DHT22;5115;50.920;6.376;2023-02-08T11:28:42;10.80;91.80
10149;DHT22;5115;50.920;6.376;2023-02-08T11:31:17;11.10;92.10
10149;DHT22;5115;50.920;6.376;2023-02-08T11:34:15;9.70;92.80
10149;DHT22;5115;50.920;6.376;2023-02-08T11:36:48;9.40;92.50
10149;DHT22;5115;50.920;6.376;2023-02-08T11:39:28;9.70;93.10
10149;DHT22;5115;50.920;6.376;2023-02-08T11:41:57;9.90;92.50
10149;DHT22;5115;50.920;6.376;2023-02-08T11:44:30;9.30;92.00
10149;DHT22;5115;50.920;6.376;2023-02-08T11:47:00;9.40;92.70
10149;DHT22;5115;50.920;6.376;2023-02-08T11:49:39;9.40;92.70
10149;DHT22;5115;50.920;6.376;2023-02-08T11:52:18;9.10;92.20
10149;DHT22;5115;50.920;6.376;2023-02-08T11:54:44;9.20;93.10
10149;DHT22;5115;50.920;6.376;2023-02-08T11:59:40;8.90;93.70
10149;DHT22;5115;50.920;6.376;2023-02-08T12:02:26;9.10;94.20
10149;DHT22;5115;50.920;6.376;2023-02-08T12:04:52;8.80;93.30
10149;DHT22;5115;50.920;6.376;2023-02-08T12:12:41;8.80;93.10
10149;DHT22;5115;50.920;6.376;2023-02-08T12:15:39;9.30;93.80
10149;DHT22;5115;50.920;6.376;2023-02-08T12:21:03;8.70;92.90
10149;DHT22;5115;50.920;6.376;2023-02-08T12:23:58;8.30;92.90
10149;DHT22;5115;50.920;6.376;2023-02-08T12:29:40;8.10;94.10
10149;DHT22;5115;50.920;6.376;2023-02-08T12:32:57;8.10;93.90
10149;DHT22;5115;50.920;6.376;2023-02-08T12:35:19;8.20;94.30
10149;DHT22;5115;50.920;6.376;2023-02-08T12:37:53;7.80;93.80
10149;DHT22;5115;50.920;6.376;2023-02-08T12:43:49;7.70;94.00
10149;DHT22;5115;50.920;6.376;2023-02-08T12:54:34;7.80;94.80
10149;DHT22;5115;50.920;6.376;2023-02-08T12:57:02;7.90;94.20
10149;DHT22;5115;50.920;6.376;2023-02-08T12:59:39;7.90;94.00
10149;DHT22;5115;50.920;6.376;2023-02-08T13:02:21;7.70;93.60
10149;DHT22;5115;50.920;6.376;2023-02-08T13:04:51;7.40;92.60
10149;DHT22;5115;50.920;6.376;2023-02-08T13:07:25;7.60;93.40
10149;DHT22;5115;50.920;6.376;2023-02-08T13:12:54;7.60;93.40
10149;DHT22;5115;50.920;6.376;2023-02-08T13:15:37;7.60;93.80
10149;DHT22;5115;50.920;6.376;2023-02-08T13:18:37;7.50;93.60
10149;DHT22;5115;50.920;6.376;2023-02-08T13:21:14;7.50;93.30
10149;DHT22;5115;50.920;6.376;2023-02-08T13:23:43;7.70;92.90
10149;DHT22;5115;50.920;6.376;2023-02-08T13:26:39;7.60;92.60
10149;DHT22;5115;50.920;6.376;2023-02-08T13:29:12;7.70;93.50
10149;DHT22;5115;50.920;6.376;2023-02-08T13:31:41;7.70;92.90
10149;DHT22;5115;50.920;6.376;2023-02-08T13:34:34;7.80;91.60
10149;DHT22;5115;50.920;6.376;2023-02-08T13:37:05;7.80;92.60
10149;DHT22;5115;50.920;6.376;2023-02-08T13:39:38;7.90;91.80
10149;DHT22;5115;50.920;6.376;2023-02-08T13:42:17;7.70;91.50
10149;DHT22;5115;50.920;6.376;2023-02-08T13:44:51;7.70;91.00
10149;DHT22;5115;50.920;6.376;2023-02-08T13:47:30;7.60;91.00
10149;DHT22;5115;50.920;6.376;2023-02-08T13:49:58;7.50;90.90
10149;DHT22;5115;50.920;6.376;2023-02-08T14:03:29;7.40;90.40
10149;DHT22;5115;50.920;6.376;2023-02-08T14:08:41;7.40;89.20
10149;DHT22;5115;50.920;6.376;2023-02-08T14:16:31;7.60;90.20
10149;DHT22;5115;50.920;6.376;2023-02-08T14:18:59;7.50;90.20
10149;DHT22;5115;50.920;6.376;2023-02-08T14:21:30;7.60;88.90
10149;DHT22;5115;50.920;6.376;2023-02-08T14:24:46;7.50;87.90
10149;DHT22;5115;50.920;6.376;2023-02-08T14:26:47;7.70;88.80
10149;DHT22;5115;50.920;6.376;2023-02-08T14:29:23;7.60;87.00
10149;DHT22;5115;50.920;6.376;2023-02-08T14:31:52;7.40;87.00
10149;DHT22;5115;50.920;6.376;2023-02-08T14:34:36;7.50;88.00
10149;DHT22;5115;50.920;6.376;2023-02-08T14:37:25;7.60;88.70
10149;DHT22;5115;50.920;6.376;2023-02-08T14:39:48;7.70;88.20
10149;DHT22;5115;50.920;6.376;2023-02-08T14:42:52;7.60;87.80
10149;DHT22;5115;50.920;6.376;2023-02-08T14:45:31;7.70;87.90
10149;DHT22;5115;50.920;6.376;2023-02-08T14:53:45;7.60;87.50
10149;DHT22;5115;50.920;6.376;2023-02-08T14:56:26;8.80;88.90
10149;DHT22;5115;50.920;6.376;2023-02-08T14:58:54;7.60;87.60
10149;DHT22;5115;50.920;6.376;2023-02-08T15:01:21;7.50;87.60
10149;DHT22;5115;50.920;6.376;2023-02-08T15:03:50;7.50;87.30
10149;DHT22;5115;50.920;6.376;2023-02-08T15:06:40;7.50;87.60
10149;DHT22;5115;50.920;6.376;2023-02-08T15:09:19;7.50;88.60
10149;DHT22;5115;50.920;6.376;2023-02-08T15:12:01;7.50;88.70
10149;DHT22;5115;50.920;6.376;2023-02-08T15:14:30;7.50;89.00
10149;DHT22;5115;50.920;6.376;2023-02-08T15:16:56;7.50;89.00
10149;DHT22;5115;50.920;6.376;2023-02-08T15:19:26;7.40;88.50
10149;DHT22;5115;50.920;6.376;2023-02-08T15:21:53;7.40;88.80
10149;DHT22;5115;50.920;6.376;2023-02-08T15:24:22;7.40;89.40
10149;DHT22;5115;50.920;6.376;2023-02-08T15:26:53;7.40;89.30
10149;DHT22;5115;50.920;6.376;2023-02-08T15:29:28;7.50;89.00
10149;DHT22;5115;50.920;6.376;2023-02-08T15:31:54;7.40;88.60
10149;DHT22;5115;50.920;6.376;2023-02-08T15:34:23;7.40;89.40
10149;DHT22;5115;50.920;6.376;2023-02-08T15:36:53;7.60;89.80
10149;DHT22;5115;50.920;6.376;2023-02-08T15:41:48;7.30;89.30
10149;DHT22;5115;50.920;6.376;2023-02-08T15:44:19;7.20;90.00
10149;DHT22;5115;50.920;6.376;2023-02-08T15:46:46;7.40;92.30
10149;DHT22;5115;50.920;6.376;2023-02-08T15:49:17;7.40;90.30
10149;DHT22;5115;50.920;6.376;2023-02-08T15:51:47;7.30;90.10
10149;DHT22;5115;50.920;6.376;2023-02-08T15:54:17;7.20;90.50
10149;DHT22;5115;50.920;6.376;2023-02-08T15:56:52;7.20;91.10
10149;DHT22;5115;50.920;6.376;2023-02-08T15:59:25;7.20;90.90
10149;DHT22;5115;50.920;6.376;2023-02-08T16:01:51;7.00;91.00
10149;DHT22;5115;50.920;6.376;2023-02-08T16:04:17;6.90;91.10
10149;DHT22;5115;50.920;6.376;2023-02-08T16:07:01;7.00;91.60
10149;DHT22;5115;50.920;6.376;2023-02-08T16:09:27;6.90;91.40
10149;DHT22;5115;50.920;6.376;2023-02-08T16:12:00;6.80;91.50
10149;DHT22;5115;50.920;6.376;2023-02-08T16:14:26;6.80;91.60
10149;DHT22;5115;50.920;6.376;2023-02-08T16:16:54;6.80;91.80
10149;DHT22;5115;50.920;6.376;2023-02-08T16:19:31;6.90;91.80
10149;DHT22;5115;50.920;6.376;2023-02-08T16:24:45;6.60;92.00
10149;DHT22;5115;50.920;6.376;2023-02-08T16:27:25;6.60;92.00
10149;DHT22;5115;50.920;6.376;2023-02-08T16:29:52;6.60;92.50
10149;DHT22;5115;50.920;6.376;2023-02-08T16:32:30;6.40;92.00
10149;DHT22;5115;50.920;6.376;2023-02-08T16:34:56;6.50;92.30
10149;DHT22;5115;50.920;6.376;2023-02-08T16:37:29;6.30;92.30
10149;DHT22;5115;50.920;6.376;2023-02-08T16:40:00;6.40;92.30
10149;DHT22;5115;50.920;6.376;2023-02-08T16:47:37;6.20;92.10
10149;DHT22;5115;50.920;6.376;2023-02-08T16:50:04;6.20;92.10
10149;DHT22;5115;50.920;6.376;2023-02-08T16:52:31;6.20;92.10
10149;DHT22;5115;50.920;6.376;2023-02-08T16:54:57;6.20;92.30
10149;DHT22;5115;50.920;6.376;2023-02-08T16:57:23;6.00;91.90
10149;DHT22;5115;50.920;6.376;2023-02-08T16:59:49;6.10;92.60
10149;DHT22;5115;50.920;6.376;2023-02-08T17:02:14;6.00;92.60
10149;DHT22;5115;50.920;6.376;2023-02-08T17:04:40;5.90;92.50
10149;DHT22;5115;50.920;6.376;2023-02-08T17:07:14;5.80;92.20
10149;DHT22;5115;50.920;6.376;2023-02-08T17:09:41;5.60;92.20
10149;DHT22;5115;50.920;6.376;2023-02-08T17:12:10;5.50;92.20
10149;DHT22;5115;50.920;6.376;2023-02-08T17:14:36;5.50;92.40
10149;DHT22;5115;50.920;6.376;2023-02-08T17:17:02;5.30;92.50
10149;DHT22;5115;50.920;6.376;2023-02-08T17:19:27;5.30;92.60
10149;DHT22;5115;50.920;6.376;2023-02-08T17:21:53;5.30;92.60
10149;DHT22;5115;50.920;6.376;2023-02-08T17:24:18;5.00;92.90
10149;DHT22;5115;50.920;6.376;2023-02-08T17:26:46;5.00;93.30
10149;DHT22;5115;50.920;6.376;2023-02-08T17:29:12;5.00;93.30
10149;DHT22;5115;50.920;6.376;2023-02-08T17:31:37;5.10;93.90
10149;DHT22;5115;50.920;6.376;2023-02-08T17:34:03;5.10;93.70
10149;DHT22;5115;50.920;6.376;2023-02-08T17:36:34;5.00;94.20
10149;DHT22;5115;50.920;6.376;2023-02-08T17:39:00;5.10;94.30
10149;DHT22;5115;50.920;6.376;2023-02-08T17:41:26;5.00;94.40
10149;DHT22;5115;50.920;6.376;2023-02-08T17:43:53;5.30;94.60
10149;DHT22;5115;50.920;6.376;2023-02-08T17:46:26;4.90;94.60
10149;DHT22;5115;50.920;6.376;2023-02-08T17:48:53;4.80;94.60
10149;DHT22;5115;50.920;6.376;2023-02-08T17:51:21;4.80;94.90
10149;DHT22;5115;50.920;6.376;2023-02-08T17:53:47;4.90;95.70
10149;DHT22;5115;50.920;6.376;2023-02-08T17:56:16;4.90;95.80
10149;DHT22;5115;50.920;6.376;2023-02-08T17:58:43;4.90;95.50
10149;DHT22;5115;50.920;6.376;2023-02-08T18:01:13;4.80;95.60
10149;DHT22;5115;50.920;6.376;2023-02-08T18:03:41;4.80;95.30
10149;DHT22;5115;50.920;6.376;2023-02-08T18:06:09;4.80;95.90
10149;DHT22;5115;50.920;6.376;2023-02-08T18:08:35;4.80;96.20
10149;DHT22;5115;50.920;6.376;2023-02-08T18:11:09;4.70;96.00
10149;DHT22;5115;50.920;6.376;2023-02-08T18:13:38;4.60;95.90
10149;DHT22;5115;50.920;6.376;2023-02-08T18:16:12;4.60;95.90
10149;DHT22;5115;50.920;6.376;2023-02-08T18:18:38;4.60;96.40
10149;DHT22;5115;50.920;6.376;2023-02-08T18:21:33;4.60;97.20
10149;DHT22;5115;50.920;6.376;2023-02-08T18:24:03;4.60;97.40